.
WxDataArchive / Data Records for 2015-04-19
2015-04-18 April 2015 2015-04-20

Data Records for Sunday, 19 April 2015

Time	Temp	Chill	HIndex	Humid	Dewpt	 Wind 	HiWind	WindDir	Rain 	Barom
-----	----	-----	------	-----	-----	------	------	-------	-----	-----
00:00	54.4	54.4	54.4	36	28.0	1	4	90	0.00	30.014 
00:05	54.2	54.2	54.2	37	28.5	1	4	90	0.00	30.014 
00:10	54.1	54.1	54.1	38	29.1	1	3	90	0.00	30.014 
00:15	53.9	53.9	53.9	38	28.9	1	5	90	0.00	30.011 
00:20	53.8	53.8	53.8	39	29.4	1	5	90	0.00	30.011 
00:25	53.6	53.6	53.6	39	29.3	2	6	90	0.00	30.011 
00:30	53.5	53.5	53.5	40	29.8	1	4	90	0.00	30.002 
00:35	53.3	53.3	53.3	41	30.2	1	5	90	0.00	30.002 
00:40	53.2	53.2	53.2	42	30.7	1	2	90	0.00	30.002 
00:45	53.1	53.1	53.1	44	31.8	1	2	90	0.00	30.005 
00:50	52.9	52.9	52.9	44	31.6	0	2	90	0.00	30.005 
00:55	52.9	52.9	52.9	45	32.1	0	2	90	0.00	30.005 
01:00	52.8	52.8	52.8	46	32.6	1	5	90	0.00	29.999 
01:05	52.6	52.6	52.6	47	32.9	1	4	90	0.00	29.999 
01:10	52.5	52.5	52.5	48	33.4	1	5	90	0.00	29.999 
01:15	52.3	52.3	52.3	49	33.7	1	4	90	0.00	29.999 
01:20	52.3	52.3	52.3	50	34.2	1	4	90	0.00	29.999 
01:25	52.2	52.2	52.2	50	34.1	2	6	90	0.00	29.999 
01:30	52.2	52.2	52.2	52	35.1	2	6	90	0.00	30.000 
01:35	52.0	52.0	52.0	52	34.9	2	4	90	0.00	30.000 
01:40	51.9	51.9	51.9	53	35.3	1	5	90	0.00	30.000 
01:45	51.7	51.7	51.7	53	35.1	1	4	90	0.00	29.998 
01:50	51.6	51.6	51.6	54	35.5	2	4	90	0.00	29.998 
01:55	51.4	51.4	51.4	54	35.3	2	5	90	0.00	29.998 
02:00	51.4	51.4	51.4	54	35.3	2	5	90	0.00	29.991 
02:05	51.3	51.3	51.3	55	35.7	1	4	90	0.00	29.991 
02:10	51.3	51.3	51.3	55	35.7	1	5	90	0.00	29.991 
02:15	51.3	51.3	51.3	55	35.7	1	5	90	0.00	29.983 
02:20	51.1	51.1	51.1	55	35.5	1	4	90	0.00	29.983 
02:25	51.1	51.1	51.1	55	35.5	2	6	112	0.00	29.983 
02:30	51.0	51.0	51.0	55	35.4	2	7	112	0.00	29.974 
02:35	51.0	51.0	51.0	55	35.4	1	5	90	0.00	29.974 
02:40	50.8	50.8	50.8	55	35.2	2	7	90	0.00	29.974 
02:45	50.8	50.8	50.8	55	35.2	3	7	90	0.00	29.968 
02:50	50.7	50.7	50.7	55	35.1	1	6	68	0.00	29.968 
02:55	50.7	50.7	50.7	56	35.6	1	4	68	0.00	29.968 
03:00	50.5	50.5	50.5	56	35.4	3	7	112	0.00	29.966 
03:05	50.4	50.4	50.4	56	35.3	3	7	112	0.00	29.966 
03:10	50.4	50.4	50.4	56	35.3	1	5	112	0.00	29.966 
03:15	50.2	50.2	50.2	56	35.1	1	5	45	0.00	29.958 
03:20	50.1	50.1	50.1	57	35.5	2	7	90	0.00	29.958 
03:25	49.9	49.9	49.9	57	35.3	1	6	90	0.00	29.958 
03:30	49.8	49.8	49.8	58	35.6	1	6	90	0.00	29.953 
03:35	49.6	49.6	49.6	58	35.4	1	5	90	0.00	29.953 
03:40	49.6	49.6	49.6	58	35.4	2	4	90	0.00	29.953 
03:45	49.5	49.5	49.5	58	35.3	2	6	90	0.00	29.951 
03:50	49.4	49.4	49.4	59	35.7	2	5	90	0.00	29.951 
03:55	49.4	49.4	49.4	59	35.7	3	5	90	0.00	29.951 
04:00	49.2	49.2	49.2	59	35.5	2	6	112	0.00	29.954 
04:05	49.2	49.2	49.2	59	35.5	3	6	90	0.00	29.954 
04:10	49.1	49.1	49.1	59	35.4	1	4	90	0.00	29.954 
04:15	48.9	48.9	48.9	60	35.6	2	5	90	0.00	29.955 
04:20	48.9	48.9	48.9	60	35.6	2	5	112	0.00	29.955 
04:25	48.9	48.9	48.9	60	35.6	2	6	90	0.00	29.955 
04:30	48.9	48.9	48.9	61	36.0	2	5	90	0.00	29.942 
04:35	48.8	48.8	48.8	61	36.0	2	5	90	0.00	29.942 
04:40	48.8	48.8	48.8	61	36.0	2	5	90	0.00	29.942 
04:45	48.8	48.8	48.8	61	36.0	2	6	90	0.00	29.938 
04:50	48.6	48.6	48.6	61	35.8	1	6	112	0.00	29.938 
04:55	48.6	48.6	48.6	61	35.8	1	5	112	0.00	29.938 
05:00	48.5	48.5	48.5	61	35.7	2	7	112	0.00	29.939 
05:05	48.5	48.5	48.5	61	35.7	1	5	112	0.00	29.939 
05:10	48.5	48.5	48.5	61	35.7	1	4	112	0.00	29.939 
05:15	48.5	48.5	48.5	61	35.7	1	4	112	0.00	29.936 
05:20	48.5	48.5	48.5	61	35.7	1	5	112	0.00	29.936 
05:25	48.3	48.3	48.3	60	35.1	1	3	112	0.00	29.936 
05:30	48.3	48.3	48.3	60	35.1	1	4	112	0.00	29.929 
05:35	48.2	48.2	48.2	61	35.4	1	3	90	0.00	29.929 
05:40	48.0	48.0	48.0	61	35.2	0	3	90	0.00	29.929 
05:45	47.9	47.9	47.9	61	35.1	1	4	90	0.00	29.926 
05:50	47.7	47.7	47.7	60	34.5	0	2	112	0.00	29.926 
05:55	47.6	47.6	47.6	60	34.4	1	3	112	0.00	29.926 
06:00	47.4	47.4	47.4	60	34.2	1	4	112	0.00	29.922 
06:05	47.4	47.4	47.4	60	34.2	1	6	112	0.00	29.922 
06:10	47.4	47.4	47.4	59	33.8	1	9	90	0.00	29.922 
06:15	47.4	47.4	47.4	59	33.8	0	2	90	0.00	29.921 
06:20	47.4	47.4	47.4	58	33.4	1	5	112	0.00	29.921 
06:25	47.6	47.6	47.6	58	33.6	1	5	112	0.00	29.921 
06:30	47.7	47.7	47.7	57	33.2	2	7	112	0.00	29.918 
06:35	47.9	47.9	47.9	57	33.4	2	10	112	0.00	29.918 
06:40	47.9	47.9	47.9	57	33.4	1	5	112	0.00	29.918 
06:45	47.9	47.9	47.9	56	33.0	3	10	112	0.00	29.920 
06:50	47.9	47.9	47.9	57	33.4	1	5	112	0.00	29.920 
06:55	47.9	47.9	47.9	58	33.8	1	4	90	0.00	29.920 
07:00	47.7	47.7	47.7	58	33.7	3	6	112	0.00	29.919 
07:05	47.7	47.7	47.7	58	33.7	2	9	90	0.00	29.919 
07:10	47.6	47.6	47.6	58	33.6	2	10	90	0.00	29.919 
07:15	47.7	47.7	47.7	58	33.7	2	9	90	0.00	29.918 
07:20	47.7	47.7	47.7	58	33.7	2	7	90	0.00	29.918 
07:25	47.7	47.7	47.7	58	33.7	1	6	90	0.00	29.918 
07:30	47.7	47.7	47.7	58	33.7	2	4	90	0.00	29.916 
07:35	47.9	47.9	47.9	58	33.8	3	6	90	0.00	29.916 
07:40	48.0	48.0	48.0	57	33.5	2	10	112	0.00	29.916 
07:45	48.0	48.0	48.0	57	33.5	3	7	112	0.00	29.906 
07:50	48.2	48.2	48.2	57	33.7	2	7	90	0.00	29.906 
07:55	48.3	48.3	48.3	57	33.8	2	7	90	0.00	29.906 
08:00	48.5	48.5	48.5	56	33.5	3	8	90	0.00	29.905 
08:05	48.5	48.5	48.5	56	33.5	3	10	112	0.00	29.905 
08:10	48.6	48.6	48.6	55	33.2	2	5	112	0.00	29.905 
08:15	48.9	46.9	48.9	55	33.5	5	12	90	0.00	29.904 
08:20	49.2	47.9	49.2	54	33.3	4	10	90	0.00	29.904 
08:25	49.5	49.5	49.5	54	33.6	3	9	112	0.00	29.904 
08:30	49.6	47.7	49.6	54	33.6	5	10	90	0.00	29.892 
08:35	50.1	50.1	50.1	54	34.1	3	9	90	0.00	29.892 
08:40	50.5	50.5	50.5	52	33.5	4	12	112	0.00	29.892 
08:45	51.0	51.0	51.0	51	33.5	4	11	112	0.00	29.887 
08:50	51.3	51.3	51.3	51	33.8	4	9	112	0.00	29.887 
08:55	51.6	51.6	51.6	51	34.1	3	7	90	0.00	29.887 
09:00	51.7	51.7	51.7	51	34.2	4	10	90	0.00	29.883 
09:05	52.0	52.0	52.0	51	34.4	4	10	90	0.00	29.883 
09:10	52.3	52.3	52.3	50	34.2	5	12	112	0.00	29.883 
09:15	52.5	52.5	52.5	50	34.4	4	11	90	0.00	29.872 
09:20	52.9	52.9	52.9	49	34.3	5	12	112	0.00	29.872 
09:25	53.2	53.2	53.2	50	35.0	3	7	112	0.00	29.872 
09:30	53.5	53.5	53.5	49	34.8	3	11	112	0.00	29.869 
09:35	53.8	53.8	53.8	47	34.0	5	13	112	0.00	29.869 
09:40	54.1	54.1	54.1	49	35.4	4	9	112	0.00	29.869 
09:45	54.7	54.7	54.7	47	34.9	5	10	90	0.00	29.854 
09:50	55.3	55.3	55.3	47	35.4	4	12	112	0.00	29.854 
09:55	55.7	55.7	55.7	46	35.2	4	13	112	0.00	29.854 
10:00	56.2	56.2	56.2	46	35.7	5	12	112	0.00	29.839 
10:05	56.9	56.9	56.9	47	36.9	2	5	112	0.00	29.839 
10:10	57.6	57.6	57.6	44	35.8	2	9	112	0.00	29.839 
10:15	58.0	58.0	58.0	43	35.6	4	11	112	0.00	29.830 
10:20	58.1	58.1	58.1	44	36.3	5	11	90	0.00	29.830 
10:25	58.4	58.4	58.4	43	36.0	4	11	112	0.00	29.830 
10:30	58.9	58.9	58.9	43	36.4	4	9	90	0.00	29.822 
10:35	59.3	59.3	59.3	40	35.0	4	12	112	0.00	29.822 
10:40	59.8	59.8	59.8	41	36.1	4	11	112	0.00	29.822 
10:45	60.1	60.1	60.1	43	37.5	4	11	90	0.00	29.814 
10:50	60.5	60.5	60.5	43	37.9	4	13	90	0.00	29.814 
10:55	60.7	60.7	60.7	39	35.6	6	13	90	0.00	29.814 
11:00	61.0	61.0	61.0	39	35.9	4	10	90	0.00	29.807 
11:05	61.5	61.5	61.5	40	37.0	5	12	90	0.00	29.807 
11:10	61.8	61.8	61.8	38	35.9	7	15	90	0.00	29.807 
11:15	62.1	62.1	62.1	38	36.2	6	16	112	0.00	29.803 
11:20	62.1	62.1	62.1	39	36.8	6	12	90	0.00	29.803 
11:25	62.1	62.1	62.1	40	37.5	6	14	112	0.00	29.803 
11:30	61.6	61.6	61.6	41	37.7	7	15	112	0.00	29.794 
11:35	61.6	61.6	61.6	41	37.7	5	13	112	0.00	29.794 
11:40	61.6	61.6	61.6	40	37.0	7	15	112	0.00	29.794 
11:45	61.6	61.6	61.6	42	38.3	6	14	112	0.00	29.786 
11:50	61.8	61.8	61.8	42	38.5	6	13	112	0.00	29.786 
11:55	62.0	62.0	62.0	42	38.6	6	14	90	0.00	29.786 
12:00	62.0	62.0	62.0	42	38.6	6	12	90	0.00	29.776 
12:05	62.0	62.0	62.0	44	39.8	4	10	90	0.00	29.776 
12:10	62.1	62.1	62.1	45	40.5	5	12	90	0.00	29.776 
12:15	62.3	62.3	62.3	43	39.5	6	12	90	0.00	29.773 
12:20	62.3	62.3	62.3	44	40.1	7	14	112	0.00	29.773 
12:25	62.3	62.3	62.3	44	40.1	5	11	90	0.00	29.773 
12:30	62.4	62.4	62.4	44	40.2	5	10	90	0.00	29.759 
12:35	62.7	62.7	62.7	44	40.5	6	11	90	0.00	29.759 
12:40	63.1	63.1	63.1	44	40.8	4	12	90	0.00	29.759 
12:45	63.2	63.2	63.2	43	40.3	6	15	112	0.00	29.748 
12:50	63.2	63.2	63.2	46	42.1	5	11	112	0.00	29.748 
12:55	63.2	63.2	63.2	44	40.9	6	14	90	0.00	29.748 
13:00	63.2	63.2	63.2	45	41.5	4	12	112	0.00	29.733 
13:05	63.4	63.4	63.4	45	41.7	6	15	90	0.00	29.733 
13:10	63.7	63.7	63.7	46	42.5	5	15	90	0.00	29.733 
13:15	64.2	64.2	64.2	44	41.8	5	11	90	0.00	29.725 
13:20	64.2	64.2	64.2	44	41.8	5	11	90	0.00	29.725 
13:25	64.3	64.3	64.3	45	42.5	5	13	112	0.00	29.725 
13:30	64.3	64.3	64.3	45	42.5	5	13	112	0.00	29.711 
13:35	64.5	64.5	64.5	44	42.1	4	9	90	0.00	29.711 
13:40	64.5	64.5	64.5	44	42.1	5	11	112	0.00	29.711 
13:45	64.5	64.5	64.5	44	42.1	5	10	112	0.00	29.696 
13:50	64.5	64.5	64.5	45	42.7	4	13	90	0.00	29.696 
13:55	64.5	64.5	64.5	46	43.3	3	11	112	0.00	29.696 
14:00	64.3	64.3	64.3	46	43.1	5	11	90	0.00	29.692 
14:05	64.2	64.2	64.2	47	43.5	3	7	90	0.00	29.692 
14:10	64.0	64.0	64.0	46	42.8	3	11	90	0.00	29.692 
14:15	63.7	63.7	63.7	46	42.5	4	12	90	0.00	29.682 
14:20	63.4	63.4	63.4	46	42.3	4	11	90	0.00	29.682 
14:25	63.2	63.2	63.2	48	43.2	2	6	112	0.00	29.682 
14:30	63.1	63.1	63.1	49	43.6	2	6	112	0.00	29.674 
14:35	62.9	62.9	62.9	50	44.0	3	8	90	0.00	29.674 
14:40	62.7	62.7	62.7	49	43.3	4	10	90	0.00	29.674 
14:45	62.4	62.4	62.4	51	44.0	2	6	90	0.00	29.666 
14:50	62.1	62.1	62.1	49	42.7	5	12	90	0.00	29.666 
14:55	62.0	62.0	62.0	51	43.7	3	7	90	0.00	29.666 
15:00	61.6	61.6	61.6	54	44.8	3	6	90	0.00	29.665 
15:05	61.2	61.2	61.2	57	45.8	3	11	90	0.00	29.665 
15:10	60.1	60.1	60.1	64	47.9	3	6	90	0.01	29.665 
15:15	58.9	58.9	58.9	68	48.4	3	9	68	0.01	29.664 
15:20	58.0	58.0	58.0	71	48.6	3	6	90	0.00	29.664 
15:25	57.5	57.5	57.5	75	49.6	1	4	90	0.00	29.664 
15:30	57.2	57.2	57.2	76	49.7	2	5	90	0.01	29.651 
15:35	56.5	56.5	56.5	77	49.4	4	7	112	0.02	29.651 
15:40	55.7	55.7	55.7	77	48.6	4	7	90	0.00	29.651 
15:45	55.3	55.3	55.3	80	49.2	2	6	90	0.01	29.641 
15:50	55.0	55.0	55.0	81	49.3	3	6	90	0.00	29.641 
15:55	54.8	54.8	54.8	82	49.4	1	9	90	0.00	29.641 
16:00	54.5	54.5	54.5	81	48.8	2	6	112	0.01	29.629 
16:05	54.5	54.5	54.5	81	48.8	1	6	68	0.00	29.629 
16:10	54.2	54.2	54.2	81	48.5	1	10	90	0.01	29.629 
16:15	53.9	53.9	53.9	81	48.2	2	7	68	0.01	29.617 
16:20	53.5	53.5	53.5	83	48.5	3	7	112	0.02	29.617 
16:25	52.9	52.9	52.9	84	48.2	4	9	90	0.01	29.617 
16:30	52.8	52.8	52.8	85	48.4	2	6	112	0.00	29.605 
16:35	52.5	52.5	52.5	86	48.4	2	9	90	0.01	29.605 
16:40	52.3	52.3	52.3	87	48.5	3	8	112	0.02	29.605 
16:45	52.2	52.2	52.2	88	48.8	2	7	90	0.01	29.591 
16:50	51.9	51.9	51.9	88	48.5	3	9	112	0.01	29.591 
16:55	51.7	51.7	51.7	88	48.3	3	11	112	0.00	29.591 
17:00	51.7	51.7	51.7	88	48.3	2	11	90	0.00	29.580 
17:05	51.6	51.6	51.6	89	48.5	3	11	112	0.00	29.580 
17:10	51.4	51.4	51.4	89	48.3	4	10	112	0.01	29.580 
17:15	51.4	51.4	51.4	90	48.6	2	5	68	0.01	29.561 
17:20	51.3	51.3	51.3	90	48.5	3	9	112	0.02	29.561 
17:25	51.1	51.1	51.1	91	48.6	3	10	90	0.02	29.561 
17:30	51.1	51.1	51.1	92	48.9	4	12	90	0.02	29.550 
17:35	51.3	51.3	51.3	92	49.1	2	10	90	0.02	29.550 
17:40	51.3	51.3	51.3	92	49.1	4	15	112	0.01	29.550 
17:45	51.3	51.3	51.3	93	49.3	3	9	68	0.00	29.534 
17:50	51.4	51.4	51.4	93	49.4	3	9	90	0.01	29.534 
17:55	51.4	51.4	51.4	93	49.4	3	9	112	0.01	29.534 
18:00	51.7	51.7	51.7	94	50.0	5	10	90	0.02	29.520 
18:05	51.9	51.9	51.9	94	50.2	4	14	90	0.03	29.520 
18:10	51.7	51.7	51.7	94	50.0	3	12	90	0.04	29.520 
18:15	51.6	51.6	51.6	93	49.6	3	9	90	0.03	29.499 
18:20	51.4	51.4	51.4	94	49.7	3	11	112	0.01	29.499 
18:25	51.6	51.6	51.6	94	49.9	4	12	112	0.02	29.499 
18:30	51.7	51.7	51.7	94	50.0	5	14	112	0.01	29.486 
18:35	51.9	51.9	51.9	94	50.2	4	12	112	0.01	29.486 
18:40	51.9	51.9	51.9	94	50.2	4	12	112	0.00	29.486 
18:45	51.6	51.6	51.6	96	50.5	5	12	112	0.02	29.476 
18:50	51.6	51.6	51.6	95	50.2	3	14	112	0.01	29.476 
18:55	51.6	51.6	51.6	95	50.2	4	15	112	0.02	29.476 
19:00	51.6	51.6	51.6	95	50.2	4	11	112	0.01	29.460 
19:05	51.4	51.4	51.4	95	50.0	4	13	112	0.01	29.460 
19:10	51.6	51.6	51.6	95	50.2	4	9	112	0.00	29.460 
19:15	51.6	51.6	51.6	95	50.2	3	12	90	0.01	29.438 
19:20	51.6	51.6	51.6	95	50.2	5	11	90	0.02	29.438 
19:25	51.7	51.7	51.7	95	50.3	5	13	112	0.02	29.438 
19:30	52.3	52.3	52.3	96	51.2	5	11	90	0.05	29.423 
19:35	52.5	52.5	52.5	96	51.4	6	12	112	0.02	29.423 
19:40	52.6	52.6	52.6	96	51.5	6	12	112	0.01	29.423 
19:45	52.8	52.8	52.8	96	51.7	6	16	112	0.00	29.404 
19:50	52.9	52.9	52.9	96	51.8	6	20	112	0.01	29.404 
19:55	53.1	53.1	53.1	96	52.0	6	11	112	0.03	29.404 
20:00	53.1	53.1	53.1	96	52.0	6	13	90	0.01	29.401 
20:05	53.2	53.2	53.2	96	52.1	7	11	112	0.00	29.401 
20:10	53.2	53.2	53.2	96	52.1	6	11	90	0.01	29.401 
20:15	53.3	53.3	53.3	96	52.2	4	11	90	0.00	29.387 
20:20	53.5	53.5	53.5	96	52.4	4	11	90	0.00	29.387 
20:25	53.9	53.9	53.9	96	52.8	4	9	112	0.00	29.387 
20:30	54.4	54.4	54.4	96	53.3	6	12	90	0.00	29.372 
20:35	54.7	54.7	54.7	96	53.6	6	14	112	0.02	29.372 
20:40	54.8	54.8	54.8	96	53.7	5	11	90	0.00	29.372 
20:45	55.6	55.6	55.6	96	54.5	7	13	112	0.00	29.368 
20:50	56.2	56.2	56.2	96	55.1	6	16	112	0.01	29.368 
20:55	56.5	56.5	56.5	96	55.4	5	17	90	0.00	29.368 
21:00	56.6	56.6	56.6	96	55.5	5	13	90	0.01	29.365 
21:05	56.7	56.7	56.7	96	55.6	5	14	112	0.00	29.365 
21:10	56.7	56.7	56.7	96	55.6	4	7	112	0.00	29.365 
21:15	56.9	56.9	56.9	96	55.8	3	9	90	0.00	29.354 
21:20	57.0	57.0	57.0	96	55.9	2	7	90	0.01	29.354 
21:25	57.2	57.2	57.2	96	56.1	3	9	90	0.00	29.354 
21:30	57.2	57.2	57.2	96	56.1	2	5	112	0.00	29.348 
21:35	57.3	57.3	57.3	96	56.2	4	7	112	0.00	29.348 
21:40	57.5	57.5	57.5	96	56.4	3	10	90	0.00	29.348 
21:45	57.6	57.6	57.6	96	56.5	2	5	90	0.00	29.343 
21:50	57.8	57.8	57.8	96	56.7	2	5	90	0.00	29.343 
21:55	58.0	58.0	58.0	96	56.9	1	3	90	0.00	29.343 
22:00	58.1	58.1	58.1	96	57.0	2	4	90	0.00	29.337 
22:05	58.3	58.3	58.3	96	57.2	1	5	90	0.00	29.337 
22:10	58.4	58.4	58.4	96	57.3	0	3	112	0.00	29.337 
22:15	58.6	58.6	58.6	96	57.5	0	1	112	0.00	29.327 
22:20	58.7	58.7	58.7	96	57.6	1	4	112	0.00	29.327 
22:25	59.0	59.0	59.0	96	57.9	1	3	112	0.00	29.327 
22:30	59.3	59.3	59.3	96	58.2	1	3	112	0.00	29.317 
22:35	59.5	59.5	59.5	96	58.4	0	0	---	0.00	29.317 
22:40	59.6	59.6	59.6	96	58.5	0	2	68	0.00	29.317 
22:45	59.8	59.8	59.8	96	58.7	0	3	68	0.00	29.309 
22:50	60.1	60.1	60.1	96	59.0	1	4	90	0.00	29.309 
22:55	60.2	60.2	60.2	96	59.1	1	5	90	0.00	29.309 
23:00	60.4	60.4	60.4	96	59.3	1	4	112	0.00	29.301 
23:05	60.5	60.5	60.5	96	59.4	1	5	112	0.00	29.301 
23:10	60.5	60.5	60.5	96	59.4	0	1	180	0.00	29.301 
23:15	60.7	60.7	60.7	96	59.6	1	3	135	0.00	29.292 
23:20	60.7	60.7	60.7	96	59.6	1	3	90	0.01	29.292 
23:25	60.5	60.5	60.5	96	59.4	1	5	90	0.00	29.292 
23:30	60.4	60.4	60.4	96	59.3	2	6	90	0.00	29.284 
23:35	60.2	60.2	60.2	96	59.1	2	5	112	0.00	29.284 
23:40	59.8	59.8	59.8	96	58.7	3	11	90	0.02	29.284 
23:45	59.6	59.6	59.6	96	58.5	1	3	90	0.00	29.275 
23:50	59.3	59.3	59.3	96	58.2	2	6	112	0.00	29.275 
23:55	59.3	59.3	59.3	96	58.2	1	4	90	0.05	29.275 

CoCoRaHS
IN-AL-39
A2 Web Hosting
Creative Commons License
GoDaddy
search engine by freefind advanced

loaded 2018-11-17 12:14:16 • last modified 2010-11-18 10:43:29
Privacy PolicyDisclaimer
• wx.awcolley.com is powered by PmWiki v.2002016 •
• all content (unless otherwise noted) © 2018 A W Colley